sensor_id;sensor_type;location;lat;lon;timestamp;P1;durP1;ratioP1;P2;durP2;ratioP2
41966;SDS011;27656;53.068;8.818;2022-11-15T00:00:27;29.07;;;18.93;;
41966;SDS011;27656;53.068;8.818;2022-11-15T00:02:54;34.53;;;19.97;;
41966;SDS011;27656;53.068;8.818;2022-11-15T00:05:21;35.33;;;19.67;;
41966;SDS011;27656;53.068;8.818;2022-11-15T00:07:47;33.20;;;19.60;;
41966;SDS011;27656;53.068;8.818;2022-11-15T00:10:21;32.23;;;19.47;;
41966;SDS011;27656;53.068;8.818;2022-11-15T00:12:47;29.43;;;17.53;;
41966;SDS011;27656;53.068;8.818;2022-11-15T00:15:14;33.27;;;19.30;;
41966;SDS011;27656;53.068;8.818;2022-11-15T00:17:40;28.10;;;17.93;;
41966;SDS011;27656;53.068;8.818;2022-11-15T00:20:07;30.97;;;18.70;;
41966;SDS011;27656;53.068;8.818;2022-11-15T00:22:34;31.17;;;19.00;;
41966;SDS011;27656;53.068;8.818;2022-11-15T00:25:00;28.63;;;17.83;;
41966;SDS011;27656;53.068;8.818;2022-11-15T00:27:26;31.10;;;19.33;;
41966;SDS011;27656;53.068;8.818;2022-11-15T00:29:53;32.20;;;18.57;;
41966;SDS011;27656;53.068;8.818;2022-11-15T00:32:19;29.77;;;18.30;;
41966;SDS011;27656;53.068;8.818;2022-11-15T00:34:46;35.10;;;19.37;;
41966;SDS011;27656;53.068;8.818;2022-11-15T00:37:12;31.20;;;18.20;;
41966;SDS011;27656;53.068;8.818;2022-11-15T00:39:39;32.00;;;18.80;;
41966;SDS011;27656;53.068;8.818;2022-11-15T00:42:05;31.80;;;18.33;;
41966;SDS011;27656;53.068;8.818;2022-11-15T00:44:32;28.33;;;17.77;;
41966;SDS011;27656;53.068;8.818;2022-11-15T00:46:58;30.90;;;17.87;;
41966;SDS011;27656;53.068;8.818;2022-11-15T00:49:24;31.57;;;18.40;;
41966;SDS011;27656;53.068;8.818;2022-11-15T00:51:51;32.93;;;18.90;;
41966;SDS011;27656;53.068;8.818;2022-11-15T00:54:17;34.40;;;19.20;;
41966;SDS011;27656;53.068;8.818;2022-11-15T00:56:44;32.93;;;18.33;;
41966;SDS011;27656;53.068;8.818;2022-11-15T00:59:10;31.13;;;18.63;;
41966;SDS011;27656;53.068;8.818;2022-11-15T01:01:36;33.37;;;18.53;;
41966;SDS011;27656;53.068;8.818;2022-11-15T01:04:03;28.60;;;17.03;;
41966;SDS011;27656;53.068;8.818;2022-11-15T01:06:29;32.23;;;18.53;;
41966;SDS011;27656;53.068;8.818;2022-11-15T01:08:56;28.17;;;17.50;;
41966;SDS011;27656;53.068;8.818;2022-11-15T01:11:22;33.53;;;19.27;;
41966;SDS011;27656;53.068;8.818;2022-11-15T01:13:49;32.20;;;18.30;;
41966;SDS011;27656;53.068;8.818;2022-11-15T01:16:16;32.33;;;17.83;;
41966;SDS011;27656;53.068;8.818;2022-11-15T01:18:44;31.90;;;18.93;;
41966;SDS011;27656;53.068;8.818;2022-11-15T01:21:12;31.13;;;18.30;;
41966;SDS011;27656;53.068;8.818;2022-11-15T01:23:41;32.83;;;18.20;;
41966;SDS011;27656;53.068;8.818;2022-11-15T01:26:09;28.97;;;17.97;;
41966;SDS011;27656;53.068;8.818;2022-11-15T01:28:37;31.20;;;17.20;;
41966;SDS011;27656;53.068;8.818;2022-11-15T01:31:06;35.70;;;18.53;;
41966;SDS011;27656;53.068;8.818;2022-11-15T01:33:38;30.70;;;18.37;;
41966;SDS011;27656;53.068;8.818;2022-11-15T01:36:05;32.13;;;18.00;;
41966;SDS011;27656;53.068;8.818;2022-11-15T01:38:32;33.73;;;18.07;;
41966;SDS011;27656;53.068;8.818;2022-11-15T01:40:59;31.93;;;17.90;;
41966;SDS011;27656;53.068;8.818;2022-11-15T01:43:27;32.37;;;17.77;;
41966;SDS011;27656;53.068;8.818;2022-11-15T01:45:59;31.87;;;17.90;;
41966;SDS011;27656;53.068;8.818;2022-11-15T01:48:30;30.47;;;18.10;;
41966;SDS011;27656;53.068;8.818;2022-11-15T01:50:59;28.30;;;18.07;;
41966;SDS011;27656;53.068;8.818;2022-11-15T01:53:27;29.67;;;18.43;;
41966;SDS011;27656;53.068;8.818;2022-11-15T01:55:56;38.27;;;18.73;;
41966;SDS011;27656;53.068;8.818;2022-11-15T01:58:23;31.87;;;18.67;;
41966;SDS011;27656;53.068;8.818;2022-11-15T02:00:50;35.07;;;19.60;;
41966;SDS011;27656;53.068;8.818;2022-11-15T02:03:17;33.23;;;19.23;;
41966;SDS011;27656;53.068;8.818;2022-11-15T02:05:44;32.57;;;19.63;;
41966;SDS011;27656;53.068;8.818;2022-11-15T02:08:11;32.33;;;18.63;;
41966;SDS011;27656;53.068;8.818;2022-11-15T02:10:46;33.80;;;19.43;;
41966;SDS011;27656;53.068;8.818;2022-11-15T02:13:13;31.40;;;18.03;;
41966;SDS011;27656;53.068;8.818;2022-11-15T02:15:44;35.63;;;19.07;;
41966;SDS011;27656;53.068;8.818;2022-11-15T02:18:28;32.27;;;19.63;;
41966;SDS011;27656;53.068;8.818;2022-11-15T02:21:05;30.67;;;18.40;;
41966;SDS011;27656;53.068;8.818;2022-11-15T02:23:48;31.07;;;18.33;;
41966;SDS011;27656;53.068;8.818;2022-11-15T02:29:11;29.10;;;17.40;;
41966;SDS011;27656;53.068;8.818;2022-11-15T02:31:45;29.83;;;18.10;;
41966;SDS011;27656;53.068;8.818;2022-11-15T02:34:26;28.90;;;16.33;;
41966;SDS011;27656;53.068;8.818;2022-11-15T02:42:20;27.30;;;16.73;;
41966;SDS011;27656;53.068;8.818;2022-11-15T02:45:08;26.37;;;16.33;;
41966;SDS011;27656;53.068;8.818;2022-11-15T02:47:41;27.53;;;16.10;;
41966;SDS011;27656;53.068;8.818;2022-11-15T02:50:13;27.13;;;16.93;;
41966;SDS011;27656;53.068;8.818;2022-11-15T02:52:45;29.53;;;16.33;;
41966;SDS011;27656;53.068;8.818;2022-11-15T02:55:31;25.40;;;15.33;;
41966;SDS011;27656;53.068;8.818;2022-11-15T03:06:20;26.07;;;16.17;;
41966;SDS011;27656;53.068;8.818;2022-11-15T03:09:07;24.07;;;15.37;;
41966;SDS011;27656;53.068;8.818;2022-11-15T03:11:38;25.73;;;15.43;;
41966;SDS011;27656;53.068;8.818;2022-11-15T03:14:10;26.13;;;16.00;;
41966;SDS011;27656;53.068;8.818;2022-11-15T03:16:49;24.30;;;15.33;;
41966;SDS011;27656;53.068;8.818;2022-11-15T03:19:40;29.23;;;15.10;;
41966;SDS011;27656;53.068;8.818;2022-11-15T03:22:14;27.43;;;15.97;;
41966;SDS011;27656;53.068;8.818;2022-11-15T03:24:45;30.73;;;16.13;;
41966;SDS011;27656;53.068;8.818;2022-11-15T03:27:15;27.33;;;15.93;;
41966;SDS011;27656;53.068;8.818;2022-11-15T03:29:45;32.10;;;17.33;;
41966;SDS011;27656;53.068;8.818;2022-11-15T03:32:17;27.40;;;16.57;;
41966;SDS011;27656;53.068;8.818;2022-11-15T03:37:45;28.43;;;16.17;;
41966;SDS011;27656;53.068;8.818;2022-11-15T03:40:25;26.40;;;16.83;;
41966;SDS011;27656;53.068;8.818;2022-11-15T03:43:00;26.27;;;15.37;;
41966;SDS011;27656;53.068;8.818;2022-11-15T03:45:41;29.80;;;15.50;;
41966;SDS011;27656;53.068;8.818;2022-11-15T03:48:13;22.27;;;14.63;;
41966;SDS011;27656;53.068;8.818;2022-11-15T03:50:41;22.13;;;14.30;;
41966;SDS011;27656;53.068;8.818;2022-11-15T03:53:08;22.53;;;14.67;;
41966;SDS011;27656;53.068;8.818;2022-11-15T03:55:35;27.93;;;15.33;;
41966;SDS011;27656;53.068;8.818;2022-11-15T03:58:01;25.40;;;15.00;;
41966;SDS011;27656;53.068;8.818;2022-11-15T04:00:28;22.83;;;14.60;;
41966;SDS011;27656;53.068;8.818;2022-11-15T04:02:55;30.33;;;16.10;;
41966;SDS011;27656;53.068;8.818;2022-11-15T04:05:21;25.77;;;15.77;;
41966;SDS011;27656;53.068;8.818;2022-11-15T04:07:48;25.23;;;14.77;;
41966;SDS011;27656;53.068;8.818;2022-11-15T04:10:15;24.53;;;15.27;;
41966;SDS011;27656;53.068;8.818;2022-11-15T04:12:42;24.77;;;15.73;;
41966;SDS011;27656;53.068;8.818;2022-11-15T04:15:11;24.97;;;15.53;;
41966;SDS011;27656;53.068;8.818;2022-11-15T04:17:54;29.00;;;14.97;;
41966;SDS011;27656;53.068;8.818;2022-11-15T04:20:26;22.00;;;14.07;;
41966;SDS011;27656;53.068;8.818;2022-11-15T04:23:19;26.13;;;14.00;;
41966;SDS011;27656;53.068;8.818;2022-11-15T04:26:09;21.57;;;13.93;;
41966;SDS011;27656;53.068;8.818;2022-11-15T04:28:37;24.60;;;14.40;;
41966;SDS011;27656;53.068;8.818;2022-11-15T04:31:22;22.70;;;14.17;;
41966;SDS011;27656;53.068;8.818;2022-11-15T04:33:49;23.17;;;14.03;;
41966;SDS011;27656;53.068;8.818;2022-11-15T04:36:15;22.53;;;13.57;;
41966;SDS011;27656;53.068;8.818;2022-11-15T04:39:00;23.50;;;14.30;;
41966;SDS011;27656;53.068;8.818;2022-11-15T04:41:27;25.50;;;14.03;;
41966;SDS011;27656;53.068;8.818;2022-11-15T04:43:55;19.57;;;13.93;;
41966;SDS011;27656;53.068;8.818;2022-11-15T04:46:22;20.27;;;12.90;;
41966;SDS011;27656;53.068;8.818;2022-11-15T04:48:50;24.80;;;13.53;;
41966;SDS011;27656;53.068;8.818;2022-11-15T04:51:23;23.80;;;14.00;;
41966;SDS011;27656;53.068;8.818;2022-11-15T04:53:50;22.77;;;14.80;;
41966;SDS011;27656;53.068;8.818;2022-11-15T04:56:16;20.20;;;13.30;;
41966;SDS011;27656;53.068;8.818;2022-11-15T04:58:42;22.50;;;13.97;;
41966;SDS011;27656;53.068;8.818;2022-11-15T05:01:13;23.47;;;13.77;;
41966;SDS011;27656;53.068;8.818;2022-11-15T05:03:41;20.43;;;13.13;;
41966;SDS011;27656;53.068;8.818;2022-11-15T05:06:26;21.63;;;13.13;;
41966;SDS011;27656;53.068;8.818;2022-11-15T05:08:52;21.93;;;14.30;;
41966;SDS011;27656;53.068;8.818;2022-11-15T05:11:19;22.77;;;13.33;;
41966;SDS011;27656;53.068;8.818;2022-11-15T05:13:46;22.40;;;13.40;;
41966;SDS011;27656;53.068;8.818;2022-11-15T05:16:13;21.40;;;13.43;;
41966;SDS011;27656;53.068;8.818;2022-11-15T05:18:39;21.77;;;12.83;;
41966;SDS011;27656;53.068;8.818;2022-11-15T05:21:07;22.47;;;13.20;;
41966;SDS011;27656;53.068;8.818;2022-11-15T05:23:35;21.40;;;12.93;;
41966;SDS011;27656;53.068;8.818;2022-11-15T05:26:02;21.97;;;13.47;;
41966;SDS011;27656;53.068;8.818;2022-11-15T05:28:34;24.17;;;13.43;;
41966;SDS011;27656;53.068;8.818;2022-11-15T05:31:03;20.27;;;12.53;;
41966;SDS011;27656;53.068;8.818;2022-11-15T05:33:30;21.17;;;12.77;;
41966;SDS011;27656;53.068;8.818;2022-11-15T05:36:02;20.77;;;13.30;;
41966;SDS011;27656;53.068;8.818;2022-11-15T05:38:31;24.07;;;12.53;;
41966;SDS011;27656;53.068;8.818;2022-11-15T05:40:58;20.67;;;12.17;;
41966;SDS011;27656;53.068;8.818;2022-11-15T05:43:26;26.20;;;13.23;;
41966;SDS011;27656;53.068;8.818;2022-11-15T05:45:53;22.07;;;13.00;;
41966;SDS011;27656;53.068;8.818;2022-11-15T05:48:19;21.73;;;13.07;;
41966;SDS011;27656;53.068;8.818;2022-11-15T05:50:46;24.93;;;13.30;;
41966;SDS011;27656;53.068;8.818;2022-11-15T05:53:14;19.77;;;12.00;;
41966;SDS011;27656;53.068;8.818;2022-11-15T05:55:42;18.60;;;12.20;;
41966;SDS011;27656;53.068;8.818;2022-11-15T05:58:08;19.60;;;11.73;;
41966;SDS011;27656;53.068;8.818;2022-11-15T06:00:35;19.67;;;11.33;;
41966;SDS011;27656;53.068;8.818;2022-11-15T06:03:01;20.40;;;11.87;;
41966;SDS011;27656;53.068;8.818;2022-11-15T06:05:28;20.63;;;12.07;;
41966;SDS011;27656;53.068;8.818;2022-11-15T06:07:58;21.00;;;12.17;;
41966;SDS011;27656;53.068;8.818;2022-11-15T06:10:25;19.50;;;12.40;;
41966;SDS011;27656;53.068;8.818;2022-11-15T06:12:58;19.23;;;12.23;;
41966;SDS011;27656;53.068;8.818;2022-11-15T06:15:28;19.30;;;12.10;;
41966;SDS011;27656;53.068;8.818;2022-11-15T06:17:58;18.03;;;12.07;;
41966;SDS011;27656;53.068;8.818;2022-11-15T06:20:25;19.67;;;12.40;;
41966;SDS011;27656;53.068;8.818;2022-11-15T06:22:57;14.87;;;11.17;;
41966;SDS011;27656;53.068;8.818;2022-11-15T06:25:27;17.80;;;11.77;;
41966;SDS011;27656;53.068;8.818;2022-11-15T06:27:55;18.67;;;12.37;;
41966;SDS011;27656;53.068;8.818;2022-11-15T06:30:22;20.67;;;13.47;;
41966;SDS011;27656;53.068;8.818;2022-11-15T06:32:49;17.47;;;12.33;;
41966;SDS011;27656;53.068;8.818;2022-11-15T06:35:16;22.47;;;12.87;;
41966;SDS011;27656;53.068;8.818;2022-11-15T06:37:43;20.30;;;12.57;;
41966;SDS011;27656;53.068;8.818;2022-11-15T06:40:09;23.57;;;13.63;;
41966;SDS011;27656;53.068;8.818;2022-11-15T06:42:36;23.27;;;12.07;;
41966;SDS011;27656;53.068;8.818;2022-11-15T06:45:02;21.20;;;12.20;;
41966;SDS011;27656;53.068;8.818;2022-11-15T06:47:29;18.03;;;12.10;;
41966;SDS011;27656;53.068;8.818;2022-11-15T06:49:56;20.33;;;12.27;;
41966;SDS011;27656;53.068;8.818;2022-11-15T06:52:22;22.67;;;12.43;;
41966;SDS011;27656;53.068;8.818;2022-11-15T06:54:49;25.73;;;13.30;;
41966;SDS011;27656;53.068;8.818;2022-11-15T06:57:15;20.53;;;11.83;;
41966;SDS011;27656;53.068;8.818;2022-11-15T06:59:41;16.70;;;11.83;;
41966;SDS011;27656;53.068;8.818;2022-11-15T07:02:14;21.90;;;12.80;;
41966;SDS011;27656;53.068;8.818;2022-11-15T07:04:40;17.87;;;12.00;;
41966;SDS011;27656;53.068;8.818;2022-11-15T07:07:07;19.50;;;13.13;;
41966;SDS011;27656;53.068;8.818;2022-11-15T07:09:34;17.70;;;11.60;;
41966;SDS011;27656;53.068;8.818;2022-11-15T07:12:00;23.23;;;12.83;;
41966;SDS011;27656;53.068;8.818;2022-11-15T07:14:32;19.03;;;12.70;;
41966;SDS011;27656;53.068;8.818;2022-11-15T07:16:59;19.80;;;12.50;;
41966;SDS011;27656;53.068;8.818;2022-11-15T07:19:25;22.77;;;12.40;;
41966;SDS011;27656;53.068;8.818;2022-11-15T07:21:52;19.60;;;12.00;;
41966;SDS011;27656;53.068;8.818;2022-11-15T07:24:18;22.17;;;12.97;;
41966;SDS011;27656;53.068;8.818;2022-11-15T07:26:45;20.33;;;12.40;;
41966;SDS011;27656;53.068;8.818;2022-11-15T07:29:11;20.67;;;12.63;;
41966;SDS011;27656;53.068;8.818;2022-11-15T07:31:37;23.70;;;13.63;;
41966;SDS011;27656;53.068;8.818;2022-11-15T07:34:05;20.03;;;11.63;;
41966;SDS011;27656;53.068;8.818;2022-11-15T07:36:31;20.50;;;12.67;;
41966;SDS011;27656;53.068;8.818;2022-11-15T07:38:57;24.60;;;12.50;;
41966;SDS011;27656;53.068;8.818;2022-11-15T07:41:24;22.77;;;13.20;;
41966;SDS011;27656;53.068;8.818;2022-11-15T07:43:51;20.00;;;12.83;;
41966;SDS011;27656;53.068;8.818;2022-11-15T07:46:17;20.17;;;12.63;;
41966;SDS011;27656;53.068;8.818;2022-11-15T07:48:44;19.93;;;12.77;;
41966;SDS011;27656;53.068;8.818;2022-11-15T07:51:12;19.17;;;13.07;;
41966;SDS011;27656;53.068;8.818;2022-11-15T07:53:40;22.33;;;13.77;;
41966;SDS011;27656;53.068;8.818;2022-11-15T07:56:07;23.47;;;12.73;;
41966;SDS011;27656;53.068;8.818;2022-11-15T07:58:34;20.47;;;12.47;;
41966;SDS011;27656;53.068;8.818;2022-11-15T08:01:07;19.53;;;12.63;;
41966;SDS011;27656;53.068;8.818;2022-11-15T08:03:36;22.00;;;11.83;;
41966;SDS011;27656;53.068;8.818;2022-11-15T08:06:03;17.30;;;12.13;;
41966;SDS011;27656;53.068;8.818;2022-11-15T08:08:29;21.67;;;12.87;;
41966;SDS011;27656;53.068;8.818;2022-11-15T08:10:59;19.60;;;12.80;;
41966;SDS011;27656;53.068;8.818;2022-11-15T08:13:25;19.07;;;11.70;;
41966;SDS011;27656;53.068;8.818;2022-11-15T08:15:56;19.67;;;13.20;;
41966;SDS011;27656;53.068;8.818;2022-11-15T08:18:23;15.70;;;12.33;;
41966;SDS011;27656;53.068;8.818;2022-11-15T08:20:50;21.60;;;12.37;;
41966;SDS011;27656;53.068;8.818;2022-11-15T08:23:16;20.63;;;11.93;;
41966;SDS011;27656;53.068;8.818;2022-11-15T08:25:43;17.70;;;11.10;;
41966;SDS011;27656;53.068;8.818;2022-11-15T08:28:09;17.87;;;12.40;;
41966;SDS011;27656;53.068;8.818;2022-11-15T08:30:37;17.67;;;11.30;;
41966;SDS011;27656;53.068;8.818;2022-11-15T08:33:04;20.10;;;10.70;;
41966;SDS011;27656;53.068;8.818;2022-11-15T08:35:31;15.80;;;10.93;;
41966;SDS011;27656;53.068;8.818;2022-11-15T08:37:57;16.43;;;10.90;;
41966;SDS011;27656;53.068;8.818;2022-11-15T08:40:24;17.93;;;10.67;;
41966;SDS011;27656;53.068;8.818;2022-11-15T08:42:50;19.67;;;11.70;;
41966;SDS011;27656;53.068;8.818;2022-11-15T08:45:17;22.00;;;12.63;;
41966;SDS011;27656;53.068;8.818;2022-11-15T08:47:44;17.00;;;11.53;;
41966;SDS011;27656;53.068;8.818;2022-11-15T08:50:17;16.33;;;10.67;;
41966;SDS011;27656;53.068;8.818;2022-11-15T08:52:44;18.63;;;10.90;;
41966;SDS011;27656;53.068;8.818;2022-11-15T08:55:10;12.87;;;10.40;;
41966;SDS011;27656;53.068;8.818;2022-11-15T08:57:37;16.70;;;10.37;;
41966;SDS011;27656;53.068;8.818;2022-11-15T09:00:03;16.47;;;10.80;;
41966;SDS011;27656;53.068;8.818;2022-11-15T09:02:30;14.97;;;9.90;;
41966;SDS011;27656;53.068;8.818;2022-11-15T09:04:56;15.83;;;10.40;;
41966;SDS011;27656;53.068;8.818;2022-11-15T09:07:23;13.07;;;10.03;;
41966;SDS011;27656;53.068;8.818;2022-11-15T09:09:51;20.20;;;10.63;;
41966;SDS011;27656;53.068;8.818;2022-11-15T09:12:17;19.20;;;10.13;;
41966;SDS011;27656;53.068;8.818;2022-11-15T09:14:43;14.77;;;9.87;;
41966;SDS011;27656;53.068;8.818;2022-11-15T09:17:10;14.83;;;10.87;;
41966;SDS011;27656;53.068;8.818;2022-11-15T09:19:36;14.20;;;9.47;;
41966;SDS011;27656;53.068;8.818;2022-11-15T09:22:07;13.00;;;9.33;;
41966;SDS011;27656;53.068;8.818;2022-11-15T09:24:34;13.20;;;10.00;;
41966;SDS011;27656;53.068;8.818;2022-11-15T09:27:01;18.77;;;10.10;;
41966;SDS011;27656;53.068;8.818;2022-11-15T09:29:27;17.70;;;10.57;;
41966;SDS011;27656;53.068;8.818;2022-11-15T09:31:53;15.73;;;10.60;;
41966;SDS011;27656;53.068;8.818;2022-11-15T09:34:20;15.03;;;10.77;;
41966;SDS011;27656;53.068;8.818;2022-11-15T09:36:47;16.43;;;10.77;;
41966;SDS011;27656;53.068;8.818;2022-11-15T09:39:13;16.67;;;10.93;;
41966;SDS011;27656;53.068;8.818;2022-11-15T09:47:14;18.20;;;10.10;;
41966;SDS011;27656;53.068;8.818;2022-11-15T09:49:58;20.57;;;9.33;;
41966;SDS011;27656;53.068;8.818;2022-11-15T09:52:25;15.93;;;9.20;;
41966;SDS011;27656;53.068;8.818;2022-11-15T09:54:52;10.77;;;8.47;;
41966;SDS011;27656;53.068;8.818;2022-11-15T09:57:24;11.37;;;8.27;;
41966;SDS011;27656;53.068;8.818;2022-11-15T10:03:19;12.03;;;8.53;;
41966;SDS011;27656;53.068;8.818;2022-11-15T10:05:54;11.57;;;9.07;;
41966;SDS011;27656;53.068;8.818;2022-11-15T10:11:20;14.37;;;8.30;;
41966;SDS011;27656;53.068;8.818;2022-11-15T10:17:06;10.77;;;7.77;;
41966;SDS011;27656;53.068;8.818;2022-11-15T10:23:10;13.83;;;7.03;;
41966;SDS011;27656;53.068;8.818;2022-11-15T10:25:38;10.60;;;7.77;;
41966;SDS011;27656;53.068;8.818;2022-11-15T10:30:43;12.40;;;7.50;;
41966;SDS011;27656;53.068;8.818;2022-11-15T10:33:14;8.93;;;6.83;;
41966;SDS011;27656;53.068;8.818;2022-11-15T10:35:46;13.93;;;7.53;;
41966;SDS011;27656;53.068;8.818;2022-11-15T10:38:12;9.43;;;6.77;;
41966;SDS011;27656;53.068;8.818;2022-11-15T10:40:40;12.27;;;7.60;;
41966;SDS011;27656;53.068;8.818;2022-11-15T10:45:37;19.57;;;10.03;;
41966;SDS011;27656;53.068;8.818;2022-11-15T10:50:40;11.40;;;7.57;;
41966;SDS011;27656;53.068;8.818;2022-11-15T10:53:13;10.27;;;7.33;;
41966;SDS011;27656;53.068;8.818;2022-11-15T10:55:49;9.30;;;6.20;;
41966;SDS011;27656;53.068;8.818;2022-11-15T11:01:10;7.80;;;5.73;;
41966;SDS011;27656;53.068;8.818;2022-11-15T11:03:39;11.50;;;6.33;;
41966;SDS011;27656;53.068;8.818;2022-11-15T11:06:07;11.20;;;5.93;;
41966;SDS011;27656;53.068;8.818;2022-11-15T11:08:39;10.73;;;6.07;;
41966;SDS011;27656;53.068;8.818;2022-11-15T11:11:06;9.37;;;5.83;;
41966;SDS011;27656;53.068;8.818;2022-11-15T11:13:35;8.33;;;5.83;;
41966;SDS011;27656;53.068;8.818;2022-11-15T11:16:20;9.43;;;5.70;;
41966;SDS011;27656;53.068;8.818;2022-11-15T11:21:40;6.87;;;5.60;;
41966;SDS011;27656;53.068;8.818;2022-11-15T11:27:43;6.97;;;4.93;;
41966;SDS011;27656;53.068;8.818;2022-11-15T11:33:29;9.63;;;4.87;;
41966;SDS011;27656;53.068;8.818;2022-11-15T11:36:06;8.67;;;5.10;;
41966;SDS011;27656;53.068;8.818;2022-11-15T11:47:27;8.63;;;4.67;;
41966;SDS011;27656;53.068;8.818;2022-11-15T11:50:00;7.67;;;4.80;;
41966;SDS011;27656;53.068;8.818;2022-11-15T11:52:38;5.63;;;4.40;;
41966;SDS011;27656;53.068;8.818;2022-11-15T11:55:17;12.07;;;3.90;;
41966;SDS011;27656;53.068;8.818;2022-11-15T12:00:37;9.40;;;4.07;;
41966;SDS011;27656;53.068;8.818;2022-11-15T12:06:05;6.60;;;4.63;;
41966;SDS011;27656;53.068;8.818;2022-11-15T12:08:48;6.00;;;4.10;;
41966;SDS011;27656;53.068;8.818;2022-11-15T12:14:48;7.80;;;4.13;;
41966;SDS011;27656;53.068;8.818;2022-11-15T12:17:26;5.40;;;3.90;;
41966;SDS011;27656;53.068;8.818;2022-11-15T12:19:59;7.27;;;3.60;;
41966;SDS011;27656;53.068;8.818;2022-11-15T12:22:44;4.57;;;3.20;;
41966;SDS011;27656;53.068;8.818;2022-11-15T12:25:16;4.67;;;3.57;;
41966;SDS011;27656;53.068;8.818;2022-11-15T12:27:47;5.47;;;3.73;;
41966;SDS011;27656;53.068;8.818;2022-11-15T12:30:17;5.67;;;3.50;;
41966;SDS011;27656;53.068;8.818;2022-11-15T12:32:50;6.37;;;3.30;;
41966;SDS011;27656;53.068;8.818;2022-11-15T12:38:04;4.60;;;3.17;;
41966;SDS011;27656;53.068;8.818;2022-11-15T12:43:41;4.80;;;2.70;;
41966;SDS011;27656;53.068;8.818;2022-11-15T12:49:00;2.93;;;2.60;;
41966;SDS011;27656;53.068;8.818;2022-11-15T13:02:18;5.57;;;3.00;;
41966;SDS011;27656;53.068;8.818;2022-11-15T13:04:53;3.73;;;3.00;;
41966;SDS011;27656;53.068;8.818;2022-11-15T13:10:29;4.03;;;2.73;;
41966;SDS011;27656;53.068;8.818;2022-11-15T13:13:54;4.57;;;3.13;;
41966;SDS011;27656;53.068;8.818;2022-11-15T13:16:08;6.87;;;2.60;;
41966;SDS011;27656;53.068;8.818;2022-11-15T13:18:36;4.70;;;2.93;;
41966;SDS011;27656;53.068;8.818;2022-11-15T13:21:04;6.60;;;2.70;;
41966;SDS011;27656;53.068;8.818;2022-11-15T13:24:04;4.27;;;2.50;;
41966;SDS011;27656;53.068;8.818;2022-11-15T13:26:31;4.70;;;2.53;;
41966;SDS011;27656;53.068;8.818;2022-11-15T13:28:57;4.13;;;2.30;;
41966;SDS011;27656;53.068;8.818;2022-11-15T13:34:15;3.93;;;1.80;;
41966;SDS011;27656;53.068;8.818;2022-11-15T13:37:02;3.17;;;1.80;;
41966;SDS011;27656;53.068;8.818;2022-11-15T13:39:30;1.73;;;1.60;;
41966;SDS011;27656;53.068;8.818;2022-11-15T13:41:57;2.80;;;1.80;;
41966;SDS011;27656;53.068;8.818;2022-11-15T13:44:28;4.97;;;1.60;;
41966;SDS011;27656;53.068;8.818;2022-11-15T13:47:18;2.53;;;1.60;;
41966;SDS011;27656;53.068;8.818;2022-11-15T13:49:45;2.97;;;1.60;;
41966;SDS011;27656;53.068;8.818;2022-11-15T13:52:15;3.10;;;1.67;;
41966;SDS011;27656;53.068;8.818;2022-11-15T13:54:47;3.37;;;1.50;;
41966;SDS011;27656;53.068;8.818;2022-11-15T13:57:21;2.43;;;1.70;;
41966;SDS011;27656;53.068;8.818;2022-11-15T14:02:25;3.93;;;1.53;;
41966;SDS011;27656;53.068;8.818;2022-11-15T14:04:53;3.10;;;1.60;;
41966;SDS011;27656;53.068;8.818;2022-11-15T14:07:22;4.00;;;1.50;;
41966;SDS011;27656;53.068;8.818;2022-11-15T14:09:50;2.40;;;1.53;;
41966;SDS011;27656;53.068;8.818;2022-11-15T14:14:52;4.00;;;1.47;;
41966;SDS011;27656;53.068;8.818;2022-11-15T14:17:20;2.17;;;1.53;;
41966;SDS011;27656;53.068;8.818;2022-11-15T14:19:56;4.03;;;1.53;;
41966;SDS011;27656;53.068;8.818;2022-11-15T14:22:23;1.73;;;1.40;;
41966;SDS011;27656;53.068;8.818;2022-11-15T14:27:34;3.03;;;1.60;;
41966;SDS011;27656;53.068;8.818;2022-11-15T14:30:00;3.17;;;1.60;;
41966;SDS011;27656;53.068;8.818;2022-11-15T14:32:28;1.63;;;1.37;;
41966;SDS011;27656;53.068;8.818;2022-11-15T14:40:01;2.53;;;1.40;;
41966;SDS011;27656;53.068;8.818;2022-11-15T14:42:29;3.50;;;1.30;;
41966;SDS011;27656;53.068;8.818;2022-11-15T14:44:56;4.70;;;1.40;;
41966;SDS011;27656;53.068;8.818;2022-11-15T14:47:23;2.93;;;1.20;;
41966;SDS011;27656;53.068;8.818;2022-11-15T14:49:51;3.53;;;1.43;;
41966;SDS011;27656;53.068;8.818;2022-11-15T14:55:08;3.00;;;1.40;;
41966;SDS011;27656;53.068;8.818;2022-11-15T14:57:43;3.90;;;1.50;;
41966;SDS011;27656;53.068;8.818;2022-11-15T15:00:11;4.07;;;1.73;;
41966;SDS011;27656;53.068;8.818;2022-11-15T15:02:42;7.27;;;1.50;;
41966;SDS011;27656;53.068;8.818;2022-11-15T15:05:17;3.67;;;1.67;;
41966;SDS011;27656;53.068;8.818;2022-11-15T15:07:45;1.67;;;1.40;;
41966;SDS011;27656;53.068;8.818;2022-11-15T15:10:12;3.97;;;1.70;;
41966;SDS011;27656;53.068;8.818;2022-11-15T15:13:00;4.03;;;1.87;;
41966;SDS011;27656;53.068;8.818;2022-11-15T15:15:31;5.70;;;1.83;;
41966;SDS011;27656;53.068;8.818;2022-11-15T15:17:59;3.60;;;1.60;;
41966;SDS011;27656;53.068;8.818;2022-11-15T15:20:25;2.33;;;1.53;;
41966;SDS011;27656;53.068;8.818;2022-11-15T15:22:53;3.03;;;1.97;;
41966;SDS011;27656;53.068;8.818;2022-11-15T15:27:53;4.77;;;2.70;;
41966;SDS011;27656;53.068;8.818;2022-11-15T15:30:24;4.67;;;2.20;;
41966;SDS011;27656;53.068;8.818;2022-11-15T15:32:52;3.23;;;2.43;;
41966;SDS011;27656;53.068;8.818;2022-11-15T15:35:20;5.47;;;3.30;;
41966;SDS011;27656;53.068;8.818;2022-11-15T15:37:47;5.30;;;2.77;;
41966;SDS011;27656;53.068;8.818;2022-11-15T15:40:23;5.50;;;3.13;;
41966;SDS011;27656;53.068;8.818;2022-11-15T15:42:50;4.63;;;2.80;;
41966;SDS011;27656;53.068;8.818;2022-11-15T15:45:17;4.70;;;3.43;;
41966;SDS011;27656;53.068;8.818;2022-11-15T15:47:45;5.30;;;3.03;;
41966;SDS011;27656;53.068;8.818;2022-11-15T15:52:55;6.77;;;3.30;;
41966;SDS011;27656;53.068;8.818;2022-11-15T15:55:23;6.27;;;3.50;;
41966;SDS011;27656;53.068;8.818;2022-11-15T15:57:50;8.30;;;3.77;;
41966;SDS011;27656;53.068;8.818;2022-11-15T16:00:17;14.73;;;4.07;;
41966;SDS011;27656;53.068;8.818;2022-11-15T16:02:44;9.23;;;3.93;;
41966;SDS011;27656;53.068;8.818;2022-11-15T16:05:11;9.20;;;4.20;;
41966;SDS011;27656;53.068;8.818;2022-11-15T16:07:39;9.73;;;4.43;;
41966;SDS011;27656;53.068;8.818;2022-11-15T16:12:54;8.93;;;4.40;;
41966;SDS011;27656;53.068;8.818;2022-11-15T16:15:22;7.70;;;3.73;;
41966;SDS011;27656;53.068;8.818;2022-11-15T16:17:51;5.63;;;3.90;;
41966;SDS011;27656;53.068;8.818;2022-11-15T16:23:06;8.33;;;4.80;;
41966;SDS011;27656;53.068;8.818;2022-11-15T16:25:39;12.10;;;5.00;;
41966;SDS011;27656;53.068;8.818;2022-11-15T16:28:26;11.93;;;5.07;;
41966;SDS011;27656;53.068;8.818;2022-11-15T16:31:01;6.97;;;4.40;;
41966;SDS011;27656;53.068;8.818;2022-11-15T16:33:29;7.60;;;4.57;;
41966;SDS011;27656;53.068;8.818;2022-11-15T16:35:56;6.57;;;4.10;;
41966;SDS011;27656;53.068;8.818;2022-11-15T16:38:23;6.47;;;4.20;;
41966;SDS011;27656;53.068;8.818;2022-11-15T16:40:49;6.03;;;4.40;;
41966;SDS011;27656;53.068;8.818;2022-11-15T16:43:16;8.13;;;4.27;;
41966;SDS011;27656;53.068;8.818;2022-11-15T16:45:42;9.87;;;4.93;;
41966;SDS011;27656;53.068;8.818;2022-11-15T16:48:18;7.30;;;4.30;;
41966;SDS011;27656;53.068;8.818;2022-11-15T16:50:54;6.90;;;4.27;;
41966;SDS011;27656;53.068;8.818;2022-11-15T16:53:22;9.73;;;4.90;;